sensor_id;sensor_type;location;lat;lon;timestamp;pressure;altitude;pressure_sealevel;temperature;humidity
32456;BME280;18912;43.270;27.942;2023-04-08T00:00:30;98501.06;;;12.48;51.63
32456;BME280;18912;43.270;27.942;2023-04-08T00:02:56;98495.03;;;12.53;51.48
32456;BME280;18912;43.270;27.942;2023-04-08T00:05:21;98498.78;;;12.45;51.87
32456;BME280;18912;43.270;27.942;2023-04-08T00:07:46;98501.06;;;12.48;52.08
32456;BME280;18912;43.270;27.942;2023-04-08T00:10:12;98502.31;;;12.39;52.32
32456;BME280;18912;43.270;27.942;2023-04-08T00:12:37;98498.56;;;12.34;52.42
32456;BME280;18912;43.270;27.942;2023-04-08T00:15:03;98486.66;;;12.54;52.03
32456;BME280;18912;43.270;27.942;2023-04-08T00:17:28;98484.38;;;12.51;52.06
32456;BME280;18912;43.270;27.942;2023-04-08T00:19:53;98480.00;;;12.50;52.32
32456;BME280;18912;43.270;27.942;2023-04-08T00:22:19;98494.41;;;12.38;52.62
32456;BME280;18912;43.270;27.942;2023-04-08T00:24:45;98495.84;;;12.47;52.44
32456;BME280;18912;43.270;27.942;2023-04-08T00:27:10;98487.50;;;12.48;52.46
32456;BME280;18912;43.270;27.942;2023-04-08T00:29:35;98492.72;;;12.56;52.24
32456;BME280;18912;43.270;27.942;2023-04-08T00:32:01;98492.50;;;12.64;51.90
32456;BME280;18912;43.270;27.942;2023-04-08T00:34:27;98495.84;;;12.66;52.09
32456;BME280;18912;43.270;27.942;2023-04-08T00:36:52;98492.91;;;12.61;52.29
32456;BME280;18912;43.270;27.942;2023-04-08T00:39:17;98488.53;;;12.67;52.21
32456;BME280;18912;43.270;27.942;2023-04-08T00:41:43;98489.97;;;12.76;51.90
32456;BME280;18912;43.270;27.942;2023-04-08T00:44:08;98486.59;;;12.87;51.72
32456;BME280;18912;43.270;27.942;2023-04-08T00:46:34;98492.88;;;12.87;51.42
32456;BME280;18912;43.270;27.942;2023-04-08T00:49:00;98489.75;;;12.77;51.90
32456;BME280;18912;43.270;27.942;2023-04-08T00:51:27;98498.97;;;12.63;52.17
32456;BME280;18912;43.270;27.942;2023-04-08T00:53:53;98497.06;;;12.77;52.09
32456;BME280;18912;43.270;27.942;2023-04-08T00:56:18;98500.97;;;12.94;51.85
32456;BME280;18912;43.270;27.942;2023-04-08T00:58:45;98499.91;;;13.01;51.10
32456;BME280;18912;43.270;27.942;2023-04-08T01:01:17;98492.22;;;12.98;50.93
32456;BME280;18912;43.270;27.942;2023-04-08T01:03:49;98492.88;;;12.81;51.24
32456;BME280;18912;43.270;27.942;2023-04-08T01:09:00;98488.28;;;12.81;51.57
32456;BME280;18912;43.270;27.942;2023-04-08T01:11:29;98493.94;;;12.80;51.48
32456;BME280;18912;43.270;27.942;2023-04-08T01:13:56;98492.69;;;12.69;51.81
32456;BME280;18912;43.270;27.942;2023-04-08T01:16:22;98489.34;;;12.67;52.04
32456;BME280;18912;43.270;27.942;2023-04-08T01:18:49;98487.88;;;12.78;51.81
32456;BME280;18912;43.270;27.942;2023-04-08T01:21:15;98487.03;;;12.84;51.35
32456;BME280;18912;43.270;27.942;2023-04-08T01:23:53;98490.81;;;12.76;51.72
32456;BME280;18912;43.270;27.942;2023-04-08T01:26:22;98487.06;;;12.64;51.92
32456;BME280;18912;43.270;27.942;2023-04-08T01:28:49;98485.41;;;12.63;52.35
32456;BME280;18912;43.270;27.942;2023-04-08T01:31:16;98490.41;;;12.66;51.99
32456;BME280;18912;43.270;27.942;2023-04-08T01:33:42;98492.91;;;12.61;52.35
32456;BME280;18912;43.270;27.942;2023-04-08T01:36:09;98488.09;;;12.63;52.16
32456;BME280;18912;43.270;27.942;2023-04-08T01:38:35;98498.75;;;12.71;52.43
32456;BME280;18912;43.270;27.942;2023-04-08T01:41:01;98491.84;;;12.82;51.93
32456;BME280;18912;43.270;27.942;2023-04-08T01:43:28;98489.09;;;12.88;51.71
32456;BME280;18912;43.270;27.942;2023-04-08T01:45:55;98492.91;;;12.74;51.91
32456;BME280;18912;43.270;27.942;2023-04-08T01:48:22;98488.09;;;12.63;52.57
32456;BME280;18912;43.270;27.942;2023-04-08T01:50:48;98490.81;;;12.76;52.38
32456;BME280;18912;43.270;27.942;2023-04-08T01:53:15;98482.44;;;12.84;51.96
32456;BME280;18912;43.270;27.942;2023-04-08T01:55:41;98484.69;;;12.94;51.38
32456;BME280;18912;43.270;27.942;2023-04-08T01:58:06;98481.63;;;12.71;51.71
32456;BME280;18912;43.270;27.942;2023-04-08T02:00:33;98485.03;;;12.34;52.56
32456;BME280;18912;43.270;27.942;2023-04-08T02:03:00;98481.66;;;12.45;52.91
32456;BME280;18912;43.270;27.942;2023-04-08T02:05:26;98481.28;;;12.48;52.71
32456;BME280;18912;43.270;27.942;2023-04-08T02:07:51;98484.59;;;12.56;52.74
32456;BME280;18912;43.270;27.942;2023-04-08T02:10:17;98487.06;;;12.58;52.62
32456;BME280;18912;43.270;27.942;2023-04-08T02:12:42;98486.03;;;12.65;52.51
32456;BME280;18912;43.270;27.942;2023-04-08T02:15:08;98485.63;;;12.62;52.32
32456;BME280;18912;43.270;27.942;2023-04-08T02:20:02;98483.56;;;12.38;52.78
32456;BME280;18912;43.270;27.942;2023-04-08T02:22:32;98485.88;;;12.08;53.69
32456;BME280;18912;43.270;27.942;2023-04-08T02:25:00;98484.38;;;12.12;53.27
32456;BME280;18912;43.270;27.942;2023-04-08T02:27:28;98497.53;;;12.15;53.58
32456;BME280;18912;43.270;27.942;2023-04-08T02:29:54;98487.31;;;12.30;53.19
32456;BME280;18912;43.270;27.942;2023-04-08T02:32:20;98492.53;;;12.38;53.06
32456;BME280;18912;43.270;27.942;2023-04-08T02:34:47;98498.78;;;12.45;52.67
32456;BME280;18912;43.270;27.942;2023-04-08T02:37:13;98505.44;;;12.43;52.54
32456;BME280;18912;43.270;27.942;2023-04-08T02:39:38;98506.47;;;12.48;52.46
32456;BME280;18912;43.270;27.942;2023-04-08T02:42:03;98502.94;;;12.41;52.15
32456;BME280;18912;43.270;27.942;2023-04-08T02:44:29;98506.69;;;12.01;52.82
32456;BME280;18912;43.270;27.942;2023-04-08T02:46:55;98505.25;;;11.98;52.42
32456;BME280;18912;43.270;27.942;2023-04-08T02:49:20;98516.28;;;11.90;52.22
32456;BME280;18912;43.270;27.942;2023-04-08T02:51:45;98509.00;;;11.91;51.86
32456;BME280;18912;43.270;27.942;2023-04-08T02:54:11;98515.63;;;11.95;51.28
32456;BME280;18912;43.270;27.942;2023-04-08T02:56:36;98522.13;;;12.00;50.97
32456;BME280;18912;43.270;27.942;2023-04-08T02:59:01;98520.47;;;12.06;50.12
32456;BME280;18912;43.270;27.942;2023-04-08T03:01:27;98513.78;;;12.02;49.53
32456;BME280;18912;43.270;27.942;2023-04-08T03:03:52;98520.00;;;11.89;48.82
32456;BME280;18912;43.270;27.942;2023-04-08T03:06:17;98513.75;;;11.82;48.58
32456;BME280;18912;43.270;27.942;2023-04-08T03:08:43;98519.56;;;11.73;48.09
32456;BME280;18912;43.270;27.942;2023-04-08T03:11:08;98519.88;;;11.50;47.66
32456;BME280;18912;43.270;27.942;2023-04-08T03:13:34;98524.84;;;11.40;47.50
32456;BME280;18912;43.270;27.942;2023-04-08T03:15:59;98525.41;;;11.22;47.42
32456;BME280;18912;43.270;27.942;2023-04-08T03:18:25;98526.41;;;11.15;47.63
32456;BME280;18912;43.270;27.942;2023-04-08T03:20:50;98529.50;;;11.05;47.68
32456;BME280;18912;43.270;27.942;2023-04-08T03:23:15;98526.03;;;10.84;48.27
32456;BME280;18912;43.270;27.942;2023-04-08T03:25:41;98530.34;;;10.78;48.12
32456;BME280;18912;43.270;27.942;2023-04-08T03:28:06;98530.78;;;10.82;48.17
32456;BME280;18912;43.270;27.942;2023-04-08T03:30:31;98524.88;;;10.65;48.49
32456;BME280;18912;43.270;27.942;2023-04-08T03:32:57;98522.81;;;10.67;48.44
32456;BME280;18912;43.270;27.942;2023-04-08T03:35:22;98525.16;;;10.49;48.64
32456;BME280;18912;43.270;27.942;2023-04-08T03:37:47;98530.78;;;10.26;49.22
32456;BME280;18912;43.270;27.942;2023-04-08T03:40:13;98536.31;;;10.40;48.76
32456;BME280;18912;43.270;27.942;2023-04-08T03:42:38;98532.09;;;10.30;48.71
32456;BME280;18912;43.270;27.942;2023-04-08T03:45:03;98540.94;;;10.18;49.39
32456;BME280;18912;43.270;27.942;2023-04-08T03:47:29;98545.47;;;10.39;49.13
32456;BME280;18912;43.270;27.942;2023-04-08T03:49:54;98552.19;;;10.49;48.50
32456;BME280;18912;43.270;27.942;2023-04-08T03:52:20;98549.47;;;10.49;48.40
32456;BME280;18912;43.270;27.942;2023-04-08T03:54:45;98545.03;;;10.35;48.64
32456;BME280;18912;43.270;27.942;2023-04-08T03:57:10;98554.22;;;10.41;49.08
32456;BME280;18912;43.270;27.942;2023-04-08T03:59:36;98551.44;;;10.34;49.81
32456;BME280;18912;43.270;27.942;2023-04-08T04:02:03;98555.50;;;10.02;50.67
32456;BME280;18912;43.270;27.942;2023-04-08T04:04:28;98548.88;;;10.26;50.35
32456;BME280;18912;43.270;27.942;2023-04-08T04:06:54;98555.53;;;10.51;51.00
32456;BME280;18912;43.270;27.942;2023-04-08T04:09:20;98562.31;;;10.68;51.16
32456;BME280;18912;43.270;27.942;2023-04-08T04:11:45;98559.31;;;10.84;51.91
32456;BME280;18912;43.270;27.942;2023-04-08T04:14:10;98562.66;;;11.20;51.86
32456;BME280;18912;43.270;27.942;2023-04-08T04:16:36;98569.41;;;11.44;51.37
32456;BME280;18912;43.270;27.942;2023-04-08T04:19:01;98570.81;;;11.68;51.28
32456;BME280;18912;43.270;27.942;2023-04-08T04:21:26;98575.88;;;11.90;50.86
32456;BME280;18912;43.270;27.942;2023-04-08T04:23:51;98577.59;;;12.24;50.89
32456;BME280;18912;43.270;27.942;2023-04-08T04:26:17;98575.31;;;12.60;51.12
32456;BME280;18912;43.270;27.942;2023-04-08T04:28:42;98571.34;;;12.89;51.56
32456;BME280;18912;43.270;27.942;2023-04-08T04:31:08;98572.56;;;12.99;52.69
32456;BME280;18912;43.270;27.942;2023-04-08T04:33:41;98568.16;;;13.25;52.98
32456;BME280;18912;43.270;27.942;2023-04-08T04:36:07;98567.03;;;13.45;52.95
32456;BME280;18912;43.270;27.942;2023-04-08T04:38:32;98575.97;;;13.59;53.03
32456;BME280;18912;43.270;27.942;2023-04-08T04:40:58;98564.56;;;13.88;52.73
32456;BME280;18912;43.270;27.942;2023-04-08T04:43:23;98570.53;;;14.03;52.67
32456;BME280;18912;43.270;27.942;2023-04-08T04:45:48;98566.72;;;14.11;53.14
32456;BME280;18912;43.270;27.942;2023-04-08T04:48:14;98564.31;;;14.34;53.61
32456;BME280;18912;43.270;27.942;2023-04-08T04:50:39;98567.66;;;14.60;52.72
32456;BME280;18912;43.270;27.942;2023-04-08T04:53:05;98552.53;;;14.89;52.34
32456;BME280;18912;43.270;27.942;2023-04-08T04:55:30;98557.47;;;15.17;51.71
32456;BME280;18912;43.270;27.942;2023-04-08T04:57:56;98561.28;;;15.34;50.98
32456;BME280;18912;43.270;27.942;2023-04-08T05:00:21;98567.47;;;15.77;50.13
32456;BME280;18912;43.270;27.942;2023-04-08T05:02:46;98574.03;;;16.06;49.86
32456;BME280;18912;43.270;27.942;2023-04-08T05:05:12;98576.34;;;16.20;49.78
32456;BME280;18912;43.270;27.942;2023-04-08T05:07:37;98571.16;;;16.30;48.96
32456;BME280;18912;43.270;27.942;2023-04-08T05:10:03;98570.22;;;16.36;48.86
32456;BME280;18912;43.270;27.942;2023-04-08T05:12:28;98584.81;;;16.83;48.09
32456;BME280;18912;43.270;27.942;2023-04-08T05:14:53;98573.56;;;17.14;47.77
32456;BME280;18912;43.270;27.942;2023-04-08T05:17:19;98572.00;;;17.30;47.13
32456;BME280;18912;43.270;27.942;2023-04-08T05:19:44;98573.66;;;17.42;46.72
32456;BME280;18912;43.270;27.942;2023-04-08T05:22:10;98585.41;;;16.85;47.25
32456;BME280;18912;43.270;27.942;2023-04-08T05:24:35;98579.38;;;17.06;47.59
32456;BME280;18912;43.270;27.942;2023-04-08T05:27:00;98587.72;;;17.11;47.80
32456;BME280;18912;43.270;27.942;2023-04-08T05:29:26;98584.47;;;17.72;46.67
32456;BME280;18912;43.270;27.942;2023-04-08T05:31:51;98586.25;;;17.66;45.75
32456;BME280;18912;43.270;27.942;2023-04-08T05:34:17;98580.59;;;17.85;45.81
32456;BME280;18912;43.270;27.942;2023-04-08T05:36:46;98586.94;;;17.73;45.49
32456;BME280;18912;43.270;27.942;2023-04-08T05:39:12;98581.16;;;18.26;45.35
32456;BME280;18912;43.270;27.942;2023-04-08T05:41:37;98581.06;;;18.21;44.82
32456;BME280;18912;43.270;27.942;2023-04-08T05:44:02;98579.94;;;18.34;44.15
32456;BME280;18912;43.270;27.942;2023-04-08T05:46:28;98586.69;;;17.75;45.10
32456;BME280;18912;43.270;27.942;2023-04-08T05:48:53;98595.16;;;16.93;45.70
32456;BME280;18912;43.270;27.942;2023-04-08T05:51:18;98592.56;;;17.21;45.86
32456;BME280;18912;43.270;27.942;2023-04-08T05:53:44;98590.28;;;17.64;45.16
32456;BME280;18912;43.270;27.942;2023-04-08T05:56:09;98590.03;;;18.33;44.62
32456;BME280;18912;43.270;27.942;2023-04-08T05:58:35;98587.44;;;18.38;43.05
32456;BME280;18912;43.270;27.942;2023-04-08T06:01:00;98593.97;;;18.37;43.38
32456;BME280;18912;43.270;27.942;2023-04-08T06:03:25;98590.72;;;17.84;44.43
32456;BME280;18912;43.270;27.942;2023-04-08T06:05:50;98598.00;;;18.07;44.64
32456;BME280;18912;43.270;27.942;2023-04-08T06:08:16;98592.56;;;17.95;45.10
32456;BME280;18912;43.270;27.942;2023-04-08T06:10:47;98592.97;;;18.72;42.97
32456;BME280;18912;43.270;27.942;2023-04-08T06:13:12;98597.97;;;18.75;43.54
32456;BME280;18912;43.270;27.942;2023-04-08T06:15:38;98595.44;;;19.56;42.47
32456;BME280;18912;43.270;27.942;2023-04-08T06:18:03;98601.50;;;19.41;42.14
32456;BME280;18912;43.270;27.942;2023-04-08T06:20:28;98602.41;;;18.47;40.65
32456;BME280;18912;43.270;27.942;2023-04-08T06:22:54;98600.38;;;18.88;40.98
32456;BME280;18912;43.270;27.942;2023-04-08T06:25:20;98600.94;;;19.39;40.47
32456;BME280;18912;43.270;27.942;2023-04-08T06:27:45;98597.34;;;19.22;41.21
32456;BME280;18912;43.270;27.942;2023-04-08T06:30:12;98610.53;;;19.58;41.37
32456;BME280;18912;43.270;27.942;2023-04-08T06:32:37;98608.31;;;19.55;39.68
32456;BME280;18912;43.270;27.942;2023-04-08T06:35:03;98614.00;;;19.71;39.79
32456;BME280;18912;43.270;27.942;2023-04-08T06:37:28;98599.97;;;20.10;40.54
32456;BME280;18912;43.270;27.942;2023-04-08T06:39:53;98602.34;;;20.23;40.88
32456;BME280;18912;43.270;27.942;2023-04-08T06:42:18;98599.72;;;20.33;38.71
32456;BME280;18912;43.270;27.942;2023-04-08T06:44:44;98598.75;;;20.44;39.58
32456;BME280;18912;43.270;27.942;2023-04-08T06:47:09;98603.25;;;20.07;39.56
32456;BME280;18912;43.270;27.942;2023-04-08T06:49:35;98601.13;;;20.63;39.74
32456;BME280;18912;43.270;27.942;2023-04-08T06:52:01;98591.38;;;20.23;37.81
32456;BME280;18912;43.270;27.942;2023-04-08T06:54:26;98599.28;;;20.41;39.23
32456;BME280;18912;43.270;27.942;2023-04-08T06:56:52;98604.66;;;20.58;39.12
32456;BME280;18912;43.270;27.942;2023-04-08T06:59:17;98602.16;;;20.57;39.89
32456;BME280;18912;43.270;27.942;2023-04-08T07:01:42;98603.03;;;19.71;41.46
32456;BME280;18912;43.270;27.942;2023-04-08T07:04:08;98606.59;;;20.89;38.74
32456;BME280;18912;43.270;27.942;2023-04-08T07:06:33;98613.25;;;21.67;37.92
32456;BME280;18912;43.270;27.942;2023-04-08T07:08:58;98610.91;;;21.85;36.39
32456;BME280;18912;43.270;27.942;2023-04-08T07:11:24;98613.97;;;20.84;37.89
32456;BME280;18912;43.270;27.942;2023-04-08T07:13:50;98610.09;;;20.26;38.40
32456;BME280;18912;43.270;27.942;2023-04-08T07:16:16;98617.75;;;20.08;37.29
32456;BME280;18912;43.270;27.942;2023-04-08T07:18:41;98612.94;;;19.93;39.02
32456;BME280;18912;43.270;27.942;2023-04-08T07:21:07;98618.38;;;19.88;37.70
32456;BME280;18912;43.270;27.942;2023-04-08T07:23:33;98631.94;;;19.78;38.78
32456;BME280;18912;43.270;27.942;2023-04-08T07:26:02;98630.47;;;20.57;37.69
32456;BME280;18912;43.270;27.942;2023-04-08T07:28:28;98624.53;;;20.00;39.83
32456;BME280;18912;43.270;27.942;2023-04-08T07:30:53;98619.22;;;19.01;41.35
32456;BME280;18912;43.270;27.942;2023-04-08T07:33:18;98634.34;;;19.03;40.87
32456;BME280;18912;43.270;27.942;2023-04-08T07:35:44;98621.38;;;18.99;42.67
32456;BME280;18912;43.270;27.942;2023-04-08T07:38:09;98630.66;;;19.86;41.51
32456;BME280;18912;43.270;27.942;2023-04-08T07:40:36;98642.53;;;18.87;41.21
32456;BME280;18912;43.270;27.942;2023-04-08T07:43:01;98640.28;;;18.84;41.25
32456;BME280;18912;43.270;27.942;2023-04-08T07:45:26;98643.69;;;18.06;42.41
32456;BME280;18912;43.270;27.942;2023-04-08T07:47:51;98642.91;;;18.22;41.47
32456;BME280;18912;43.270;27.942;2023-04-08T07:50:17;98633.16;;;19.16;40.72
32456;BME280;18912;43.270;27.942;2023-04-08T07:52:42;98638.78;;;19.59;39.36
32456;BME280;18912;43.270;27.942;2023-04-08T07:55:08;98633.13;;;18.66;40.97
32456;BME280;18912;43.270;27.942;2023-04-08T07:57:33;98635.88;;;19.87;39.62
32456;BME280;18912;43.270;27.942;2023-04-08T07:59:58;98643.47;;;19.42;39.94
32456;BME280;18912;43.270;27.942;2023-04-08T08:02:24;98637.28;;;18.69;39.60
32456;BME280;18912;43.270;27.942;2023-04-08T08:04:49;98634.06;;;18.43;40.15
32456;BME280;18912;43.270;27.942;2023-04-08T08:07:15;98630.91;;;18.23;40.60
32456;BME280;18912;43.270;27.942;2023-04-08T08:09:40;98642.78;;;18.85;40.88
32456;BME280;18912;43.270;27.942;2023-04-08T08:12:05;98640.75;;;19.80;39.04
32456;BME280;18912;43.270;27.942;2023-04-08T08:14:31;98643.88;;;19.34;38.40
32456;BME280;18912;43.270;27.942;2023-04-08T08:16:56;98642.31;;;19.38;38.98
32456;BME280;18912;43.270;27.942;2023-04-08T08:19:21;98638.03;;;19.30;38.90
32456;BME280;18912;43.270;27.942;2023-04-08T08:21:47;98648.44;;;19.28;38.09
32456;BME280;18912;43.270;27.942;2023-04-08T08:24:12;98653.84;;;19.40;38.31
32456;BME280;18912;43.270;27.942;2023-04-08T08:26:38;98643.13;;;19.55;36.84
32456;BME280;18912;43.270;27.942;2023-04-08T08:29:03;98635.47;;;18.91;39.33
32456;BME280;18912;43.270;27.942;2023-04-08T08:31:29;98645.47;;;19.30;37.81
32456;BME280;18912;43.270;27.942;2023-04-08T08:33:54;98656.91;;;19.98;38.10
32456;BME280;18912;43.270;27.942;2023-04-08T08:36:20;98648.44;;;19.28;38.82
32456;BME280;18912;43.270;27.942;2023-04-08T08:38:45;98659.72;;;18.82;40.11
32456;BME280;18912;43.270;27.942;2023-04-08T08:41:11;98651.50;;;19.15;38.48
32456;BME280;18912;43.270;27.942;2023-04-08T08:43:36;98655.94;;;18.72;40.31
32456;BME280;18912;43.270;27.942;2023-04-08T08:46:02;98643.59;;;18.69;40.47
32456;BME280;18912;43.270;27.942;2023-04-08T08:48:27;98646.53;;;18.39;41.84
32456;BME280;18912;43.270;27.942;2023-04-08T08:50:53;98649.69;;;18.20;42.54
32456;BME280;18912;43.270;27.942;2023-04-08T08:53:19;98651.44;;;18.65;42.20
32456;BME280;18912;43.270;27.942;2023-04-08T08:55:44;98649.59;;;18.99;42.06
32456;BME280;18912;43.270;27.942;2023-04-08T08:58:10;98653.03;;;18.61;43.73
32456;BME280;18912;43.270;27.942;2023-04-08T09:00:35;98653.47;;;18.02;43.94
32456;BME280;18912;43.270;27.942;2023-04-08T09:03:20;98658.34;;;18.00;44.23
32456;BME280;18912;43.270;27.942;2023-04-08T09:05:56;98676.78;;;17.93;42.89
32456;BME280;18912;43.270;27.942;2023-04-08T09:08:43;98668.19;;;16.97;46.29
32456;BME280;18912;43.270;27.942;2023-04-08T09:11:11;98671.75;;;16.98;45.99
32456;BME280;18912;43.270;27.942;2023-04-08T09:13:37;98671.84;;;16.91;45.63
32456;BME280;18912;43.270;27.942;2023-04-08T09:16:04;98678.16;;;16.92;46.70
32456;BME280;18912;43.270;27.942;2023-04-08T09:18:30;98679.81;;;16.51;46.66
32456;BME280;18912;43.270;27.942;2023-04-08T09:20:58;98680.97;;;16.85;45.60
32456;BME280;18912;43.270;27.942;2023-04-08T09:23:23;98684.63;;;16.67;46.09
32456;BME280;18912;43.270;27.942;2023-04-08T09:25:48;98677.84;;;16.22;48.38
32456;BME280;18912;43.270;27.942;2023-04-08T09:28:20;98682.28;;;16.53;46.78
32456;BME280;18912;43.270;27.942;2023-04-08T09:30:45;98693.19;;;16.71;48.84
32456;BME280;18912;43.270;27.942;2023-04-08T09:33:11;98680.38;;;17.59;47.33
32456;BME280;18912;43.270;27.942;2023-04-08T09:35:37;98684.13;;;17.23;47.31
32456;BME280;18912;43.270;27.942;2023-04-08T09:38:02;98685.47;;;17.21;47.68
32456;BME280;18912;43.270;27.942;2023-04-08T09:40:28;98679.81;;;16.93;48.78
32456;BME280;18912;43.270;27.942;2023-04-08T09:42:56;98678.34;;;17.89;48.05
32456;BME280;18912;43.270;27.942;2023-04-08T09:45:23;98678.94;;;17.33;49.01
32456;BME280;18912;43.270;27.942;2023-04-08T09:47:52;98675.63;;;17.89;47.71
32456;BME280;18912;43.270;27.942;2023-04-08T09:50:21;98680.84;;;17.79;48.12
32456;BME280;18912;43.270;27.942;2023-04-08T09:52:48;98671.31;;;17.93;47.02
32456;BME280;18912;43.270;27.942;2023-04-08T09:55:20;98696.78;;;17.59;48.37
32456;BME280;18912;43.270;27.942;2023-04-08T09:58:02;98670.34;;;17.99;46.83
32456;BME280;18912;43.270;27.942;2023-04-08T10:00:32;98677.41;;;17.72;48.28
32456;BME280;18912;43.270;27.942;2023-04-08T10:03:05;98677.91;;;18.20;46.10
32456;BME280;18912;43.270;27.942;2023-04-08T10:05:36;98684.19;;;17.81;46.47
32456;BME280;18912;43.270;27.942;2023-04-08T10:08:02;98670.28;;;18.22;46.52
32456;BME280;18912;43.270;27.942;2023-04-08T10:10:28;98673.22;;;18.04;45.76
32456;BME280;18912;43.270;27.942;2023-04-08T10:12:53;98676.56;;;17.95;46.73
32456;BME280;18912;43.270;27.942;2023-04-08T10:15:26;98668.16;;;18.81;45.32
32456;BME280;18912;43.270;27.942;2023-04-08T10:17:55;98668.59;;;18.89;44.11
32456;BME280;18912;43.270;27.942;2023-04-08T10:23:01;98660.50;;;19.44;42.85
32456;BME280;18912;43.270;27.942;2023-04-08T10:25:27;98662.25;;;18.55;41.49
32456;BME280;18912;43.270;27.942;2023-04-08T10:27:53;98655.50;;;19.24;42.82
32456;BME280;18912;43.270;27.942;2023-04-08T10:32:50;98669.50;;;18.10;43.93
32456;BME280;18912;43.270;27.942;2023-04-08T10:35:15;98649.00;;;18.52;43.46
32456;BME280;18912;43.270;27.942;2023-04-08T10:37:41;98650.38;;;18.38;43.53
32456;BME280;18912;43.270;27.942;2023-04-08T10:40:17;98662.72;;;18.97;44.26
32456;BME280;18912;43.270;27.942;2023-04-08T10:42:43;98653.59;;;18.35;45.12
32456;BME280;18912;43.270;27.942;2023-04-08T10:45:08;98650.16;;;17.89;45.66
32456;BME280;18912;43.270;27.942;2023-04-08T10:47:33;98648.53;;;18.55;44.16
32456;BME280;18912;43.270;27.942;2023-04-08T10:49:59;98650.00;;;18.46;44.82
32456;BME280;18912;43.270;27.942;2023-04-08T10:52:26;98668.00;;;18.42;44.42
32456;BME280;18912;43.270;27.942;2023-04-08T10:54:52;98669.81;;;18.65;45.12
32456;BME280;18912;43.270;27.942;2023-04-08T10:57:23;98665.97;;;18.38;46.24
32456;BME280;18912;43.270;27.942;2023-04-08T10:59:49;98666.06;;;18.03;46.14
32456;BME280;18912;43.270;27.942;2023-04-08T11:02:15;98658.28;;;18.80;46.18
32456;BME280;18912;43.270;27.942;2023-04-08T11:04:41;98661.56;;;19.26;45.25
32456;BME280;18912;43.270;27.942;2023-04-08T11:07:07;98669.34;;;18.56;44.57
32456;BME280;18912;43.270;27.942;2023-04-08T11:09:33;98665.84;;;18.44;45.92
32456;BME280;18912;43.270;27.942;2023-04-08T11:11:58;98659.06;;;18.92;45.56
32456;BME280;18912;43.270;27.942;2023-04-08T11:14:24;98654.75;;;18.39;45.18
32456;BME280;18912;43.270;27.942;2023-04-08T11:16:50;98654.41;;;18.08;45.74
32456;BME280;18912;43.270;27.942;2023-04-08T11:19:15;98649.84;;;18.13;45.85
32456;BME280;18912;43.270;27.942;2023-04-08T11:21:42;98643.44;;;18.92;44.85
32456;BME280;18912;43.270;27.942;2023-04-08T11:24:10;98645.25;;;18.87;44.74
32456;BME280;18912;43.270;27.942;2023-04-08T11:26:36;98661.47;;;18.60;44.94
32456;BME280;18912;43.270;27.942;2023-04-08T11:29:02;98645.03;;;17.92;47.44
32456;BME280;18912;43.270;27.942;2023-04-08T11:31:27;98650.75;;;18.30;45.99
32456;BME280;18912;43.270;27.942;2023-04-08T11:33:53;98639.59;;;17.69;48.09
32456;BME280;18912;43.270;27.942;2023-04-08T11:36:20;98646.97;;;17.22;48.82
32456;BME280;18912;43.270;27.942;2023-04-08T11:38:46;98639.97;;;17.61;48.04
32456;BME280;18912;43.270;27.942;2023-04-08T11:41:12;98639.03;;;17.21;48.06
32456;BME280;18912;43.270;27.942;2023-04-08T11:43:37;98639.97;;;17.38;47.82
32456;BME280;18912;43.270;27.942;2023-04-08T11:46:08;98632.00;;;17.71;46.95
32456;BME280;18912;43.270;27.942;2023-04-08T11:48:34;98634.72;;;17.02;49.02
32456;BME280;18912;43.270;27.942;2023-04-08T11:51:04;98634.72;;;17.02;48.19
32456;BME280;18912;43.270;27.942;2023-04-08T11:53:30;98636.81;;;16.76;49.30
32456;BME280;18912;43.270;27.942;2023-04-08T11:55:55;98627.41;;;16.72;50.08
32456;BME280;18912;43.270;27.942;2023-04-08T11:58:21;98615.81;;;17.12;49.86
32456;BME280;18912;43.270;27.942;2023-04-08T12:00:46;98625.16;;;16.69;48.31
32456;BME280;18912;43.270;27.942;2023-04-08T12:03:13;98633.66;;;16.32;49.60
32456;BME280;18912;43.270;27.942;2023-04-08T12:05:38;98628.03;;;16.45;48.56
32456;BME280;18912;43.270;27.942;2023-04-08T12:08:03;98627.16;;;16.62;48.04
32456;BME280;18912;43.270;27.942;2023-04-08T12:10:29;98620.25;;;16.48;49.81
32456;BME280;18912;43.270;27.942;2023-04-08T12:12:54;98618.47;;;16.54;49.35
32456;BME280;18912;43.270;27.942;2023-04-08T12:15:20;98620.06;;;16.43;48.97
32456;BME280;18912;43.270;27.942;2023-04-08T12:17:45;98607.25;;;16.85;48.84
32456;BME280;18912;43.270;27.942;2023-04-08T12:20:11;98612.50;;;17.21;46.43
32456;BME280;18912;43.270;27.942;2023-04-08T12:22:36;98619.72;;;16.69;46.36
32456;BME280;18912;43.270;27.942;2023-04-08T12:25:02;98615.91;;;16.41;48.08
32456;BME280;18912;43.270;27.942;2023-04-08T12:27:28;98609.94;;;16.50;48.24
32456;BME280;18912;43.270;27.942;2023-04-08T12:29:54;98608.72;;;16.99;47.71
32456;BME280;18912;43.270;27.942;2023-04-08T12:32:19;98604.72;;;16.60;47.30
32456;BME280;18912;43.270;27.942;2023-04-08T12:34:45;98604.47;;;16.50;47.48
32456;BME280;18912;43.270;27.942;2023-04-08T12:37:10;98605.09;;;16.64;48.42
32456;BME280;18912;43.270;27.942;2023-04-08T12:39:36;98605.91;;;16.64;44.69
32456;BME280;18912;43.270;27.942;2023-04-08T12:42:02;98596.75;;;16.59;46.22
32456;BME280;18912;43.270;27.942;2023-04-08T12:44:28;98592.09;;;17.35;46.95
32456;BME280;18912;43.270;27.942;2023-04-08T12:46:53;98587.25;;;16.50;47.87
32456;BME280;18912;43.270;27.942;2023-04-08T12:49:19;98582.09;;;16.71;47.42
32456;BME280;18912;43.270;27.942;2023-04-08T12:51:44;98574.16;;;17.28;46.22
32456;BME280;18912;43.270;27.942;2023-04-08T12:54:10;98577.69;;;16.70;42.79